Aérodrome :
LOGIN :

S'inscrire | Disclaimer

   EN    FR    IT 

 










Légende :    VFR   VFR Marginal   IFR   IFR Intensif   IFR Très Intensif
Visi : 
Plafond : 
>= 8 km
>= 3000ft
5 à 8 km
1000 à 3000 ft
1500m à 5 km
500 à 1000 ft
800 à 1500m
200 à 500 ft
< 800m
< 200 ft
Symboles :   Orages  Brouillard  Fortes neiges  Fortes précipitations  Vent > 20 kt
SIGMETs :   Divers  Orages  Givrage  Turbulence  Onde Orograph.  Cendres Volcan.






- Altitude de l'aérodrome : 481 ft
- Code IATA : DNK


UKDD - Dnipropetrovs'k

DERNIER METAR :
  • 261100Z 21009MPS 160V250 CAVOK 10/02 Q1002 R26/090070 TEMPO 20010G16MPS

METARs EXPIRÉS :
  • 261030Z 21009G15MPS 160V240 CAVOK 10/02 Q1002 R26/090070 TEMPO 20010G16MPS
  • 261000Z 20008G13MPS 150V220 CAVOK 10/02 Q1002 R26/090070 TEMPO 20010G16MPS
  • 260930Z 20009MPS 170V230 CAVOK 09/01 Q1003 R26/090070 TEMPO 20010G16MPS
  • 260900Z 20008MPS 150V230 CAVOK 09/01 Q1003 R26/090070 NOSIG
  • 260830Z 19007MPS 150V240 CAVOK 08/00 Q1004 R26/090070 NOSIG

TAF TAF UKDD
Valide du 26 à 06h jusqu'au 27 à 06h UTC


260505Z 2606/2706 19007G12MPS 9999 BKN020 TX10/2612Z TN02/2703Z
TEMPO 2608/2615 20010G16MPS



MET'MAP, la Météo Aéronautique d'un coup d'oeil ! - Copyright ORBIFLY Décembre 2007 - Disclaimer

ORBIFLY MET'MAP TEAM :

Programmation & Développement : Alexandra Zaïnal
Sur une idée originale de : Baudouin d'Aumeries
Assistance à la programmation : Marc-Olivier Méhu
Soutien technique & logistique : Manuel Goepfert

Contact : metmap@orbifly.com




SOURCES & CREDITS :

   NOAA